Lexington, Tennessee
Current Conditions -  °F | °C
As of 2:15 PM on Sunday 23 Nov 2014 (Local Time) from KPVE Reporting Station
Overcast Overcast  
Wind Chill: 55°   Ceiling: 900
Heat Index: 55°   Visibility: 4mi
Dew Point: 55°   Wind: 8mph
Humidity: 100%   Direction: 160°SSE
Pressure: 29.4"   Gusts: NA
Location:  35.65°N, 88.39°W
Report Text: KPVE 232015Z AUTO 16007KT 130V200 4SM OVC009 13/13 A2940 RMK
Loading
Personal Weather Stations






























Interactive Weather Map New forecast layout! Learn more

10-Day Weather Forecast

Advertisements
Track Severe Weather on mobile